sensor_id;sensor_type;location;lat;lon;timestamp;pressure;altitude;pressure_sealevel;temperature;humidity
64211;BME280;72187;48.514;14.394;2023-09-30T00:00:20;94383.19;;;17.57;68.09
64211;BME280;72187;48.514;14.394;2023-09-30T00:01:14;94382.71;;;17.58;67.67
64211;BME280;72187;48.514;14.394;2023-09-30T00:01:47;94385.85;;;17.58;67.57
64211;BME280;72187;48.514;14.394;2023-09-30T00:02:22;94382.30;;;17.62;67.75
64211;BME280;72187;48.514;14.394;2023-09-30T00:02:57;94387.23;;;17.62;67.96
64211;BME280;72187;48.514;14.394;2023-09-30T00:03:31;94387.62;;;17.61;67.91
64211;BME280;72187;48.514;14.394;2023-09-30T00:04:05;94387.81;;;17.62;68.11
64211;BME280;72187;48.514;14.394;2023-09-30T00:04:40;94384.35;;;17.63;68.23
64211;BME280;72187;48.514;14.394;2023-09-30T00:05:14;94386.52;;;17.64;68.39
64211;BME280;72187;48.514;14.394;2023-09-30T00:05:48;94382.70;;;17.62;68.39
64211;BME280;72187;48.514;14.394;2023-09-30T00:06:21;94384.35;;;17.62;68.41
64211;BME280;72187;48.514;14.394;2023-09-30T00:06:55;94383.80;;;17.61;68.46
64211;BME280;72187;48.514;14.394;2023-09-30T00:07:28;94382.50;;;17.61;68.71
64211;BME280;72187;48.514;14.394;2023-09-30T00:08:02;94379.38;;;17.62;68.98
64211;BME280;72187;48.514;14.394;2023-09-30T00:08:36;94379.52;;;17.64;68.83
64211;BME280;72187;48.514;14.394;2023-09-30T00:09:12;94380.05;;;17.63;68.68
64211;BME280;72187;48.514;14.394;2023-09-30T00:09:46;94373.61;;;17.59;68.60
64211;BME280;72187;48.514;14.394;2023-09-30T00:10:20;94376.38;;;17.64;68.94
64211;BME280;72187;48.514;14.394;2023-09-30T00:10:53;94380.04;;;17.64;68.84
64211;BME280;72187;48.514;14.394;2023-09-30T00:11:27;94379.32;;;17.60;68.86
64211;BME280;72187;48.514;14.394;2023-09-30T00:12:01;94377.41;;;17.61;68.90
64211;BME280;72187;48.514;14.394;2023-09-30T00:12:35;94376.66;;;17.62;69.01
64211;BME280;72187;48.514;14.394;2023-09-30T00:13:12;94379.46;;;17.63;69.07
64211;BME280;72187;48.514;14.394;2023-09-30T00:13:49;94380.36;;;17.62;69.17
64211;BME280;72187;48.514;14.394;2023-09-30T00:14:25;94382.91;;;17.63;69.37
64211;BME280;72187;48.514;14.394;2023-09-30T00:14:59;94379.52;;;17.63;69.59
64211;BME280;72187;48.514;14.394;2023-09-30T00:15:33;94384.98;;;17.63;69.75
64211;BME280;72187;48.514;14.394;2023-09-30T00:16:06;94382.91;;;17.64;69.81
64211;BME280;72187;48.514;14.394;2023-09-30T00:16:40;94377.65;;;17.65;70.11
64211;BME280;72187;48.514;14.394;2023-09-30T00:17:14;94376.16;;;17.64;70.17
64211;BME280;72187;48.514;14.394;2023-09-30T00:17:48;94376.36;;;17.66;70.25
64211;BME280;72187;48.514;14.394;2023-09-30T00:18:21;94375.91;;;17.68;70.20
64211;BME280;72187;48.514;14.394;2023-09-30T00:18:55;94374.04;;;17.64;70.12
64211;BME280;72187;48.514;14.394;2023-09-30T00:19:29;94374.14;;;17.61;70.30
64211;BME280;72187;48.514;14.394;2023-09-30T00:20:03;94372.60;;;17.61;70.47
64211;BME280;72187;48.514;14.394;2023-09-30T00:20:37;94374.33;;;17.59;70.57
64211;BME280;72187;48.514;14.394;2023-09-30T00:21:10;94376.65;;;17.58;70.58
64211;BME280;72187;48.514;14.394;2023-09-30T00:21:44;94381.01;;;17.58;70.55
64211;BME280;72187;48.514;14.394;2023-09-30T00:22:18;94380.73;;;17.57;70.77
64211;BME280;72187;48.514;14.394;2023-09-30T00:22:51;94376.92;;;17.56;70.76
64211;BME280;72187;48.514;14.394;2023-09-30T00:23:25;94378.00;;;17.55;70.83
64211;BME280;72187;48.514;14.394;2023-09-30T00:23:58;94369.08;;;17.47;70.85
64211;BME280;72187;48.514;14.394;2023-09-30T00:24:32;94378.02;;;17.52;71.12
64211;BME280;72187;48.514;14.394;2023-09-30T00:25:06;94379.23;;;17.51;71.45
64211;BME280;72187;48.514;14.394;2023-09-30T00:25:39;94381.52;;;17.50;71.30
64211;BME280;72187;48.514;14.394;2023-09-30T00:26:13;94383.17;;;17.51;71.54
64211;BME280;72187;48.514;14.394;2023-09-30T00:26:48;94379.89;;;17.51;71.48
64211;BME280;72187;48.514;14.394;2023-09-30T00:27:23;94379.98;;;17.51;71.50
64211;BME280;72187;48.514;14.394;2023-09-30T00:27:57;94381.33;;;17.51;71.60
64211;BME280;72187;48.514;14.394;2023-09-30T00:28:30;94384.08;;;17.53;71.68
64211;BME280;72187;48.514;14.394;2023-09-30T00:29:04;94382.75;;;17.52;71.69
64211;BME280;72187;48.514;14.394;2023-09-30T00:29:38;94383.44;;;17.51;71.55
64211;BME280;72187;48.514;14.394;2023-09-30T00:30:12;94383.44;;;17.51;71.91
64211;BME280;72187;48.514;14.394;2023-09-30T00:30:45;94383.60;;;17.52;72.02
64211;BME280;72187;48.514;14.394;2023-09-30T00:31:21;94386.19;;;17.54;71.93
64211;BME280;72187;48.514;14.394;2023-09-30T00:31:54;94387.00;;;17.52;72.10
64211;BME280;72187;48.514;14.394;2023-09-30T00:32:28;94388.92;;;17.51;72.12
64211;BME280;72187;48.514;14.394;2023-09-30T00:33:02;94392.70;;;17.51;72.24
64211;BME280;72187;48.514;14.394;2023-09-30T00:33:36;94393.19;;;17.50;72.36
64211;BME280;72187;48.514;14.394;2023-09-30T00:34:10;94395.24;;;17.50;72.49
64211;BME280;72187;48.514;14.394;2023-09-30T00:34:43;94396.95;;;17.51;72.62
64211;BME280;72187;48.514;14.394;2023-09-30T00:35:17;94399.66;;;17.51;72.70
64211;BME280;72187;48.514;14.394;2023-09-30T00:35:51;94398.65;;;17.51;72.88
64211;BME280;72187;48.514;14.394;2023-09-30T00:36:24;94400.88;;;17.51;72.97
64211;BME280;72187;48.514;14.394;2023-09-30T00:36:58;94402.63;;;17.51;73.22
64211;BME280;72187;48.514;14.394;2023-09-30T00:37:31;94404.12;;;17.52;73.74
64211;BME280;72187;48.514;14.394;2023-09-30T00:38:05;94406.83;;;17.52;73.64
64211;BME280;72187;48.514;14.394;2023-09-30T00:38:39;94403.91;;;17.52;73.95
64211;BME280;72187;48.514;14.394;2023-09-30T00:39:13;94408.00;;;17.52;74.00
64211;BME280;72187;48.514;14.394;2023-09-30T00:39:46;94410.19;;;17.51;73.93
64211;BME280;72187;48.514;14.394;2023-09-30T00:40:20;94408.20;;;17.52;74.22
64211;BME280;72187;48.514;14.394;2023-09-30T00:40:53;94403.65;;;17.49;74.37
64211;BME280;72187;48.514;14.394;2023-09-30T00:41:26;94410.17;;;17.51;74.43
64211;BME280;72187;48.514;14.394;2023-09-30T00:42:00;94409.55;;;17.50;74.42
64211;BME280;72187;48.514;14.394;2023-09-30T00:42:33;94410.92;;;17.52;74.71
64211;BME280;72187;48.514;14.394;2023-09-30T00:43:18;94412.67;;;17.52;74.70
64211;BME280;72187;48.514;14.394;2023-09-30T00:43:51;94410.60;;;17.51;75.17
64211;BME280;72187;48.514;14.394;2023-09-30T00:44:26;94410.20;;;17.49;75.30
64211;BME280;72187;48.514;14.394;2023-09-30T00:45:03;94409.23;;;17.43;75.05
64211;BME280;72187;48.514;14.394;2023-09-30T00:45:38;94410.05;;;17.39;74.87
64211;BME280;72187;48.514;14.394;2023-09-30T00:46:47;94409.66;;;17.39;75.53
64211;BME280;72187;48.514;14.394;2023-09-30T00:47:22;94411.95;;;17.31;75.49
64211;BME280;72187;48.514;14.394;2023-09-30T00:47:56;94413.39;;;17.30;75.88
64211;BME280;72187;48.514;14.394;2023-09-30T00:48:30;94413.34;;;17.27;75.98
64211;BME280;72187;48.514;14.394;2023-09-30T00:49:03;94415.64;;;17.26;76.04
64211;BME280;72187;48.514;14.394;2023-09-30T00:49:37;94414.11;;;17.25;76.01
64211;BME280;72187;48.514;14.394;2023-09-30T00:50:12;94415.48;;;17.26;76.18
64211;BME280;72187;48.514;14.394;2023-09-30T00:50:46;94417.79;;;17.25;75.93
64211;BME280;72187;48.514;14.394;2023-09-30T00:51:20;94420.70;;;17.25;76.37
64211;BME280;72187;48.514;14.394;2023-09-30T00:51:55;94420.00;;;17.25;76.22
64211;BME280;72187;48.514;14.394;2023-09-30T00:52:32;94423.11;;;17.30;76.64
64211;BME280;72187;48.514;14.394;2023-09-30T00:53:06;94425.35;;;17.29;76.20
64211;BME280;72187;48.514;14.394;2023-09-30T00:53:40;94426.80;;;17.28;76.27
64211;BME280;72187;48.514;14.394;2023-09-30T00:54:17;94427.80;;;17.31;76.36
64211;BME280;72187;48.514;14.394;2023-09-30T00:54:53;94427.90;;;17.31;76.50
64211;BME280;72187;48.514;14.394;2023-09-30T00:55:28;94426.90;;;17.27;76.25
64211;BME280;72187;48.514;14.394;2023-09-30T00:56:02;94425.29;;;17.30;76.66
64211;BME280;72187;48.514;14.394;2023-09-30T00:56:39;94428.29;;;17.36;76.23
64211;BME280;72187;48.514;14.394;2023-09-30T00:57:17;94427.80;;;17.29;76.70
64211;BME280;72187;48.514;14.394;2023-09-30T00:57:53;94425.75;;;17.25;76.50
64211;BME280;72187;48.514;14.394;2023-09-30T00:58:27;94424.86;;;17.22;76.68
64211;BME280;72187;48.514;14.394;2023-09-30T00:59:02;94421.35;;;17.23;76.97
64211;BME280;72187;48.514;14.394;2023-09-30T00:59:37;94421.34;;;17.23;77.08
64211;BME280;72187;48.514;14.394;2023-09-30T01:00:12;94419.70;;;17.20;77.09
64211;BME280;72187;48.514;14.394;2023-09-30T01:00:47;94423.05;;;17.20;77.17
64211;BME280;72187;48.514;14.394;2023-09-30T01:01:21;94423.85;;;17.20;77.64
64211;BME280;72187;48.514;14.394;2023-09-30T01:01:56;94421.88;;;17.20;77.44
64211;BME280;72187;48.514;14.394;2023-09-30T01:02:32;94424.54;;;17.22;77.81
64211;BME280;72187;48.514;14.394;2023-09-30T01:03:08;94427.36;;;17.20;77.31
64211;BME280;72187;48.514;14.394;2023-09-30T01:03:46;94430.23;;;17.19;77.52
64211;BME280;72187;48.514;14.394;2023-09-30T01:04:20;94430.77;;;17.19;77.64
64211;BME280;72187;48.514;14.394;2023-09-30T01:04:55;94433.00;;;17.19;77.39
64211;BME280;72187;48.514;14.394;2023-09-30T01:05:30;94429.63;;;17.22;77.63
64211;BME280;72187;48.514;14.394;2023-09-30T01:06:03;94426.27;;;17.27;77.36
64211;BME280;72187;48.514;14.394;2023-09-30T01:06:37;94428.98;;;17.23;77.40
64211;BME280;72187;48.514;14.394;2023-09-30T01:07:11;94425.86;;;17.24;77.59
64211;BME280;72187;48.514;14.394;2023-09-30T01:07:44;94423.44;;;17.29;77.91
64211;BME280;72187;48.514;14.394;2023-09-30T01:08:18;94422.70;;;17.31;77.93
64211;BME280;72187;48.514;14.394;2023-09-30T01:08:53;94423.48;;;17.27;77.92
64211;BME280;72187;48.514;14.394;2023-09-30T01:09:27;94417.91;;;17.28;78.17
64211;BME280;72187;48.514;14.394;2023-09-30T01:10:02;94416.69;;;17.30;78.16
64211;BME280;72187;48.514;14.394;2023-09-30T01:10:35;94423.02;;;17.28;78.19
64211;BME280;72187;48.514;14.394;2023-09-30T01:11:09;94422.75;;;17.27;78.13
64211;BME280;72187;48.514;14.394;2023-09-30T01:11:42;94423.29;;;17.27;78.18
64211;BME280;72187;48.514;14.394;2023-09-30T01:12:17;94422.91;;;17.27;78.30
64211;BME280;72187;48.514;14.394;2023-09-30T01:12:51;94419.40;;;17.26;78.28
64211;BME280;72187;48.514;14.394;2023-09-30T01:13:32;94421.74;;;17.28;78.19
64211;BME280;72187;48.514;14.394;2023-09-30T01:14:32;94418.34;;;17.29;78.05
64211;BME280;72187;48.514;14.394;2023-09-30T01:15:13;94421.40;;;17.24;77.93
64211;BME280;72187;48.514;14.394;2023-09-30T01:15:47;94423.10;;;17.25;77.70
64211;BME280;72187;48.514;14.394;2023-09-30T01:16:21;94422.16;;;17.27;77.63
64211;BME280;72187;48.514;14.394;2023-09-30T01:16:55;94425.25;;;17.29;77.55
64211;BME280;72187;48.514;14.394;2023-09-30T01:17:29;94425.77;;;17.29;77.38
64211;BME280;72187;48.514;14.394;2023-09-30T01:18:03;94425.87;;;17.32;77.51
64211;BME280;72187;48.514;14.394;2023-09-30T01:18:38;94420.55;;;17.32;77.38
64211;BME280;72187;48.514;14.394;2023-09-30T01:19:13;94425.33;;;17.35;77.49
64211;BME280;72187;48.514;14.394;2023-09-30T01:19:47;94421.27;;;17.37;77.58
64211;BME280;72187;48.514;14.394;2023-09-30T01:20:20;94419.45;;;17.39;77.46
64211;BME280;72187;48.514;14.394;2023-09-30T01:20:55;94421.94;;;17.38;77.37
64211;BME280;72187;48.514;14.394;2023-09-30T01:21:34;94420.50;;;17.39;77.18
64211;BME280;72187;48.514;14.394;2023-09-30T01:22:07;94417.85;;;17.42;77.14
64211;BME280;72187;48.514;14.394;2023-09-30T01:22:43;94417.83;;;17.45;77.04
64211;BME280;72187;48.514;14.394;2023-09-30T01:23:18;94415.58;;;17.40;76.98
64211;BME280;72187;48.514;14.394;2023-09-30T01:23:52;94419.13;;;17.41;76.71
64211;BME280;72187;48.514;14.394;2023-09-30T01:24:26;94419.39;;;17.41;76.61
64211;BME280;72187;48.514;14.394;2023-09-30T01:25:00;94419.34;;;17.42;76.58
64211;BME280;72187;48.514;14.394;2023-09-30T01:25:34;94423.34;;;17.46;76.73
64211;BME280;72187;48.514;14.394;2023-09-30T01:26:12;94420.21;;;17.46;76.71
64211;BME280;72187;48.514;14.394;2023-09-30T01:26:45;94416.65;;;17.48;76.92
64211;BME280;72187;48.514;14.394;2023-09-30T01:27:19;94419.57;;;17.48;76.63
64211;BME280;72187;48.514;14.394;2023-09-30T01:27:52;94419.09;;;17.47;76.67
64211;BME280;72187;48.514;14.394;2023-09-30T01:28:27;94416.06;;;17.45;76.73
64211;BME280;72187;48.514;14.394;2023-09-30T01:29:00;94420.48;;;17.49;76.73
64211;BME280;72187;48.514;14.394;2023-09-30T01:29:33;94415.02;;;17.51;76.51
64211;BME280;72187;48.514;14.394;2023-09-30T01:30:08;94411.08;;;17.46;76.53
64211;BME280;72187;48.514;14.394;2023-09-30T01:30:44;94414.52;;;17.45;76.54
64211;BME280;72187;48.514;14.394;2023-09-30T01:31:18;94413.73;;;17.44;76.65
64211;BME280;72187;48.514;14.394;2023-09-30T01:31:52;94416.48;;;17.44;76.60
64211;BME280;72187;48.514;14.394;2023-09-30T01:32:25;94415.83;;;17.43;76.60
64211;BME280;72187;48.514;14.394;2023-09-30T01:33:00;94413.23;;;17.43;76.53
64211;BME280;72187;48.514;14.394;2023-09-30T01:33:33;94415.45;;;17.41;76.47
64211;BME280;72187;48.514;14.394;2023-09-30T01:34:08;94415.15;;;17.48;76.33
64211;BME280;72187;48.514;14.394;2023-09-30T01:34:44;94413.15;;;17.44;76.21
64211;BME280;72187;48.514;14.394;2023-09-30T01:35:17;94415.55;;;17.44;76.24
64211;BME280;72187;48.514;14.394;2023-09-30T01:35:51;94415.56;;;17.43;76.22
64211;BME280;72187;48.514;14.394;2023-09-30T01:36:24;94417.42;;;17.43;76.15
64211;BME280;72187;48.514;14.394;2023-09-30T01:36:58;94413.98;;;17.43;76.12
64211;BME280;72187;48.514;14.394;2023-09-30T01:37:31;94413.98;;;17.41;76.01
64211;BME280;72187;48.514;14.394;2023-09-30T01:38:05;94414.54;;;17.45;76.02
64211;BME280;72187;48.514;14.394;2023-09-30T01:38:38;94414.92;;;17.43;75.64
64211;BME280;72187;48.514;14.394;2023-09-30T01:39:14;94410.89;;;17.41;75.78
64211;BME280;72187;48.514;14.394;2023-09-30T01:39:47;94413.23;;;17.40;75.90
64211;BME280;72187;48.514;14.394;2023-09-30T01:40:23;94410.94;;;17.41;75.90
64211;BME280;72187;48.514;14.394;2023-09-30T01:40:56;94411.54;;;17.38;76.11
64211;BME280;72187;48.514;14.394;2023-09-30T01:41:33;94410.05;;;17.39;76.15
64211;BME280;72187;48.514;14.394;2023-09-30T01:42:06;94414.52;;;17.41;76.01
64211;BME280;72187;48.514;14.394;2023-09-30T01:42:40;94414.08;;;17.39;75.86
64211;BME280;72187;48.514;14.394;2023-09-30T01:43:14;94411.96;;;17.38;75.80
64211;BME280;72187;48.514;14.394;2023-09-30T01:43:48;94411.19;;;17.36;75.93
64211;BME280;72187;48.514;14.394;2023-09-30T01:44:22;94411.65;;;17.38;75.76
64211;BME280;72187;48.514;14.394;2023-09-30T01:44:55;94411.94;;;17.36;75.67
64211;BME280;72187;48.514;14.394;2023-09-30T01:45:30;94413.21;;;17.35;75.73
64211;BME280;72187;48.514;14.394;2023-09-30T01:46:03;94412.63;;;17.34;75.87
64211;BME280;72187;48.514;14.394;2023-09-30T01:46:39;94410.81;;;17.34;75.96
64211;BME280;72187;48.514;14.394;2023-09-30T01:47:12;94411.45;;;17.34;75.94
64211;BME280;72187;48.514;14.394;2023-09-30T01:47:46;94409.11;;;17.35;76.00
64211;BME280;72187;48.514;14.394;2023-09-30T01:48:19;94408.94;;;17.37;75.86
64211;BME280;72187;48.514;14.394;2023-09-30T01:48:53;94412.50;;;17.38;75.85
64211;BME280;72187;48.514;14.394;2023-09-30T01:50:42;94415.19;;;17.22;75.67
64211;BME280;72187;48.514;14.394;2023-09-30T01:51:16;94412.98;;;17.18;75.64
64211;BME280;72187;48.514;14.394;2023-09-30T01:51:50;94411.55;;;17.19;75.77
64211;BME280;72187;48.514;14.394;2023-09-30T01:52:24;94412.83;;;17.18;75.87
64211;BME280;72187;48.514;14.394;2023-09-30T01:52:57;94413.51;;;17.17;75.95
64211;BME280;72187;48.514;14.394;2023-09-30T01:53:30;94402.88;;;17.08;75.95
64211;BME280;72187;48.514;14.394;2023-09-30T01:54:04;94416.34;;;17.15;76.05
64211;BME280;72187;48.514;14.394;2023-09-30T01:54:38;94421.42;;;17.17;76.07
64211;BME280;72187;48.514;14.394;2023-09-30T01:55:11;94416.54;;;17.20;75.96
64211;BME280;72187;48.514;14.394;2023-09-30T01:55:45;94414.35;;;17.19;76.04
64211;BME280;72187;48.514;14.394;2023-09-30T01:56:19;94419.71;;;17.20;75.90
64211;BME280;72187;48.514;14.394;2023-09-30T01:56:53;94420.73;;;17.16;76.05
64211;BME280;72187;48.514;14.394;2023-09-30T01:57:27;94416.84;;;17.13;75.89
64211;BME280;72187;48.514;14.394;2023-09-30T01:58:00;94418.16;;;17.12;76.20
64211;BME280;72187;48.514;14.394;2023-09-30T01:58:34;94420.34;;;17.10;76.18
64211;BME280;72187;48.514;14.394;2023-09-30T01:59:07;94420.08;;;17.11;76.18
64211;BME280;72187;48.514;14.394;2023-09-30T01:59:41;94418.70;;;17.10;76.23
64211;BME280;72187;48.514;14.394;2023-09-30T02:00:14;94423.11;;;17.09;76.31
64211;BME280;72187;48.514;14.394;2023-09-30T02:00:48;94419.23;;;17.11;76.18
64211;BME280;72187;48.514;14.394;2023-09-30T02:01:21;94417.16;;;17.10;76.13
64211;BME280;72187;48.514;14.394;2023-09-30T02:01:56;94419.66;;;17.08;76.17
64211;BME280;72187;48.514;14.394;2023-09-30T02:02:30;94421.94;;;17.08;76.08
64211;BME280;72187;48.514;14.394;2023-09-30T02:03:04;94424.12;;;17.12;75.91
64211;BME280;72187;48.514;14.394;2023-09-30T02:03:38;94422.58;;;17.09;75.76
64211;BME280;72187;48.514;14.394;2023-09-30T02:04:12;94422.81;;;17.06;76.03
64211;BME280;72187;48.514;14.394;2023-09-30T02:04:48;94423.77;;;17.06;75.91
64211;BME280;72187;48.514;14.394;2023-09-30T02:05:22;94426.15;;;17.05;76.09
64211;BME280;72187;48.514;14.394;2023-09-30T02:05:59;94424.02;;;17.04;75.95
64211;BME280;72187;48.514;14.394;2023-09-30T02:06:33;94426.42;;;17.02;75.91
64211;BME280;72187;48.514;14.394;2023-09-30T02:07:07;94421.23;;;17.00;76.09
64211;BME280;72187;48.514;14.394;2023-09-30T02:07:40;94427.88;;;16.99;76.07
64211;BME280;72187;48.514;14.394;2023-09-30T02:08:14;94428.95;;;16.99;76.12
64211;BME280;72187;48.514;14.394;2023-09-30T02:08:49;94425.02;;;16.97;76.06
64211;BME280;72187;48.514;14.394;2023-09-30T02:09:22;94428.30;;;16.98;76.21
64211;BME280;72187;48.514;14.394;2023-09-30T02:09:57;94424.91;;;16.97;75.87
64211;BME280;72187;48.514;14.394;2023-09-30T02:10:31;94424.85;;;16.98;76.04
64211;BME280;72187;48.514;14.394;2023-09-30T02:11:06;94428.73;;;16.97;76.13
64211;BME280;72187;48.514;14.394;2023-09-30T02:11:40;94430.48;;;16.98;76.09
64211;BME280;72187;48.514;14.394;2023-09-30T02:12:14;94428.79;;;16.97;76.03
64211;BME280;72187;48.514;14.394;2023-09-30T02:12:49;94434.05;;;16.95;76.06
64211;BME280;72187;48.514;14.394;2023-09-30T02:13:22;94435.49;;;16.96;76.02
64211;BME280;72187;48.514;14.394;2023-09-30T02:13:56;94437.50;;;16.97;76.08
64211;BME280;72187;48.514;14.394;2023-09-30T02:14:31;94435.91;;;16.96;76.05
64211;BME280;72187;48.514;14.394;2023-09-30T02:15:05;94437.02;;;16.98;75.81
64211;BME280;72187;48.514;14.394;2023-09-30T02:15:40;94437.34;;;16.98;75.80
64211;BME280;72187;48.514;14.394;2023-09-30T02:16:17;94435.98;;;16.95;75.94
64211;BME280;72187;48.514;14.394;2023-09-30T02:16:50;94438.63;;;16.92;75.97
64211;BME280;72187;48.514;14.394;2023-09-30T02:17:24;94437.99;;;16.92;76.04
64211;BME280;72187;48.514;14.394;2023-09-30T02:17:58;94439.90;;;16.93;76.00
64211;BME280;72187;48.514;14.394;2023-09-30T02:18:33;94438.48;;;17.02;75.92
64211;BME280;72187;48.514;14.394;2023-09-30T02:19:07;94442.33;;;16.98;76.01
64211;BME280;72187;48.514;14.394;2023-09-30T02:19:44;94439.09;;;16.98;75.88
64211;BME280;72187;48.514;14.394;2023-09-30T02:20:18;94440.91;;;16.96;75.83
64211;BME280;72187;48.514;14.394;2023-09-30T02:21:00;94441.89;;;16.90;76.18
64211;BME280;72187;48.514;14.394;2023-09-30T02:21:33;94440.44;;;16.91;76.19
64211;BME280;72187;48.514;14.394;2023-09-30T02:22:09;94441.37;;;16.85;76.32
64211;BME280;72187;48.514;14.394;2023-09-30T02:22:42;94446.02;;;16.92;76.17
64211;BME280;72187;48.514;14.394;2023-09-30T02:23:18;94444.31;;;16.94;76.06
64211;BME280;72187;48.514;14.394;2023-09-30T02:23:52;94446.51;;;16.90;76.36
64211;BME280;72187;48.514;14.394;2023-09-30T02:24:28;94448.44;;;16.84;76.34
64211;BME280;72187;48.514;14.394;2023-09-30T02:25:02;94451.20;;;16.83;76.26
64211;BME280;72187;48.514;14.394;2023-09-30T02:25:40;94452.79;;;16.83;76.47
64211;BME280;72187;48.514;14.394;2023-09-30T02:26:15;94448.92;;;16.80;76.65
64211;BME280;72187;48.514;14.394;2023-09-30T02:26:49;94452.27;;;16.82;76.52
64211;BME280;72187;48.514;14.394;2023-09-30T02:27:22;94453.75;;;16.81;76.59
64211;BME280;72187;48.514;14.394;2023-09-30T02:27:56;94460.65;;;16.82;76.62
64211;BME280;72187;48.514;14.394;2023-09-30T02:28:30;94458.64;;;16.83;76.62
64211;BME280;72187;48.514;14.394;2023-09-30T02:29:05;94460.70;;;16.81;76.52
64211;BME280;72187;48.514;14.394;2023-09-30T02:29:41;94458.05;;;16.79;76.60
64211;BME280;72187;48.514;14.394;2023-09-30T02:30:14;94464.95;;;16.82;76.62
64211;BME280;72187;48.514;14.394;2023-09-30T02:30:49;94461.88;;;16.79;76.49
64211;BME280;72187;48.514;14.394;2023-09-30T02:31:23;94467.98;;;16.83;76.72
64211;BME280;72187;48.514;14.394;2023-09-30T02:31:58;94465.43;;;16.82;76.85
64211;BME280;72187;48.514;14.394;2023-09-30T02:32:33;94466.35;;;16.78;76.65
64211;BME280;72187;48.514;14.394;2023-09-30T02:33:06;94472.15;;;16.78;76.80
64211;BME280;72187;48.514;14.394;2023-09-30T02:33:40;94475.05;;;16.79;76.91
64211;BME280;72187;48.514;14.394;2023-09-30T02:34:14;94475.86;;;16.72;77.15
64211;BME280;72187;48.514;14.394;2023-09-30T02:34:48;94478.67;;;16.72;77.28
64211;BME280;72187;48.514;14.394;2023-09-30T02:35:21;94480.17;;;16.71;77.19
64211;BME280;72187;48.514;14.394;2023-09-30T02:35:55;94480.13;;;16.66;77.26
64211;BME280;72187;48.514;14.394;2023-09-30T02:36:29;94483.62;;;16.69;77.65
64211;BME280;72187;48.514;14.394;2023-09-30T02:37:02;94482.70;;;16.75;77.51
64211;BME280;72187;48.514;14.394;2023-09-30T02:37:36;94481.44;;;16.68;77.29
64211;BME280;72187;48.514;14.394;2023-09-30T02:38:10;94484.11;;;16.66;77.38
64211;BME280;72187;48.514;14.394;2023-09-30T02:38:44;94482.14;;;16.62;77.84
64211;BME280;72187;48.514;14.394;2023-09-30T02:39:19;94480.66;;;16.64;77.88
64211;BME280;72187;48.514;14.394;2023-09-30T02:39:53;94479.16;;;16.62;78.06
64211;BME280;72187;48.514;14.394;2023-09-30T02:40:27;94480.23;;;16.63;77.93
64211;BME280;72187;48.514;14.394;2023-09-30T02:41:01;94476.03;;;16.62;77.99
64211;BME280;72187;48.514;14.394;2023-09-30T02:41:36;94484.54;;;16.61;78.13
64211;BME280;72187;48.514;14.394;2023-09-30T02:42:10;94481.23;;;16.62;78.12
64211;BME280;72187;48.514;14.394;2023-09-30T02:42:44;94478.85;;;16.63;78.00
64211;BME280;72187;48.514;14.394;2023-09-30T02:43:17;94478.47;;;16.61;78.32
64211;BME280;72187;48.514;14.394;2023-09-30T02:43:51;94476.84;;;16.61;78.12
64211;BME280;72187;48.514;14.394;2023-09-30T02:44:24;94478.64;;;16.59;78.14
64211;BME280;72187;48.514;14.394;2023-09-30T02:45:01;94478.39;;;16.56;78.04
64211;BME280;72187;48.514;14.394;2023-09-30T02:45:37;94482.55;;;16.55;78.08
64211;BME280;72187;48.514;14.394;2023-09-30T02:46:11;94481.54;;;16.56;78.24
64211;BME280;72187;48.514;14.394;2023-09-30T02:46:45;94478.94;;;16.55;78.15
64211;BME280;72187;48.514;14.394;2023-09-30T02:47:20;94483.14;;;16.55;78.28
64211;BME280;72187;48.514;14.394;2023-09-30T02:47:53;94481.86;;;16.53;78.17
64211;BME280;72187;48.514;14.394;2023-09-30T02:48:27;94481.17;;;16.54;78.23
64211;BME280;72187;48.514;14.394;2023-09-30T02:49:01;94484.09;;;16.55;78.17
64211;BME280;72187;48.514;14.394;2023-09-30T02:49:36;94485.26;;;16.53;78.23
64211;BME280;72187;48.514;14.394;2023-09-30T02:50:10;94488.07;;;16.53;78.09
64211;BME280;72187;48.514;14.394;2023-09-30T02:50:49;94492.44;;;16.48;78.53
64211;BME280;72187;48.514;14.394;2023-09-30T02:51:22;94490.89;;;16.50;78.31
64211;BME280;72187;48.514;14.394;2023-09-30T02:51:56;94493.71;;;16.47;78.23
64211;BME280;72187;48.514;14.394;2023-09-30T02:52:30;94491.86;;;16.42;78.86
64211;BME280;72187;48.514;14.394;2023-09-30T02:53:04;94489.52;;;16.39;78.48
64211;BME280;72187;48.514;14.394;2023-09-30T02:53:38;94494.07;;;16.38;78.56
64211;BME280;72187;48.514;14.394;2023-09-30T02:54:11;94492.06;;;16.40;78.74
64211;BME280;72187;48.514;14.394;2023-09-30T02:54:48;94493.45;;;16.42;79.07
64211;BME280;72187;48.514;14.394;2023-09-30T02:55:22;94492.17;;;16.36;78.93
64211;BME280;72187;48.514;14.394;2023-09-30T02:55:55;94490.63;;;16.34;79.19
64211;BME280;72187;48.514;14.394;2023-09-30T02:56:33;94474.67;;;16.22;79.15
64211;BME280;72187;48.514;14.394;2023-09-30T02:57:07;94487.41;;;16.31;79.22
64211;BME280;72187;48.514;14.394;2023-09-30T02:57:43;94489.73;;;16.33;79.29
64211;BME280;72187;48.514;14.394;2023-09-30T02:58:17;94490.68;;;16.34;78.81
64211;BME280;72187;48.514;14.394;2023-09-30T02:58:52;94487.41;;;16.28;79.04
64211;BME280;72187;48.514;14.394;2023-09-30T02:59:26;94490.00;;;16.28;79.17
64211;BME280;72187;48.514;14.394;2023-09-30T03:00:02;94487.98;;;16.26;79.17
64211;BME280;72187;48.514;14.394;2023-09-30T03:00:48;94487.19;;;16.25;79.39
64211;BME280;72187;48.514;14.394;2023-09-30T03:01:23;94491.65;;;16.20;79.40
64211;BME280;72187;48.514;14.394;2023-09-30T03:01:57;94485.71;;;16.18;79.40
64211;BME280;72187;48.514;14.394;2023-09-30T03:02:30;94486.72;;;16.24;79.47